Terminal Aerodrome Forecast
Issued by NWS

Home | Current Version | Previous Version | Text Only | Print | Product List | Glossary Off
Versions: 1 2 3 4 5 6 7 8 9 10 11 12 13 14 15 16 17 18 19 20 21 22 23 24 25 26 27 28 29

000
FTUS43 KBIS 221616 AAE
TAFMOT
TAF AMD
KMOT 221616Z 2216/2312 36010KT P6SM OVC007
     FM221800 02011KT P6SM VCSH BKN015
     FM222000 03011KT P6SM BKN030
     FM230600 07010KT P6SM BKN015 OVC100=

USA.gov is the U.S. government's official web portal to all federal, state and local government web resources and services.